Time;durP1;ratioP1;P1;durP2;ratioP2;P2;SDS_P1;SDS_P2;PMS_P1;PMS_P2;Temp;Humidity;BMP_temperature;BMP_pressure;BME280_temperature;BME280_humidity;BME280_pressure;Samples;Min_cycle;Max_cycle;Signal;HPM_P1;HPM_P2
2021/04/16 00:01:54;;;;;;;27.80;26.05;;;2.20;75.80;;;;;;5092950;28;20663;-75
2021/04/16 00:04:21;;;;;;;26.45;24.95;;;2.20;76.00;;;;;;5093005;28;20201;-75
2021/04/16 00:06:48;;;;;;;27.33;25.55;;;2.30;75.70;;;;;;5092257;28;20200;-76
2021/04/16 00:09:15;;;;;;;27.33;25.63;;;2.20;75.60;;;;;;5092745;28;20310;-76
2021/04/16 00:11:42;;;;;;;26.95;25.25;;;2.20;75.70;;;;;;5092833;28;20319;-76
2021/04/16 00:14:09;;;;;;;27.10;25.30;;;2.20;75.70;;;;;;5092562;28;20196;-76
2021/04/16 00:16:36;;;;;;;26.50;24.90;;;2.20;75.80;;;;;;5091921;28;20200;-75
2021/04/16 00:19:02;;;;;;;26.63;25.02;;;2.10;76.20;;;;;;5092288;28;20275;-76
2021/04/16 00:21:29;;;;;;;26.33;24.63;;;2.10;76.00;;;;;;5092392;28;20227;-75
2021/04/16 00:23:55;;;;;;;26.58;24.90;;;2.10;76.10;;;;;;5092632;28;20196;-75
2021/04/16 00:26:22;;;;;;;26.63;24.92;;;2.10;76.20;;;;;;5091975;28;20657;-75
2021/04/16 00:28:49;;;;;;;26.85;25.02;;;2.10;76.20;;;;;;5092248;28;20302;-75
2021/04/16 00:31:19;;;;;;;27.50;25.70;;;2.10;76.00;;;;;;5092655;28;20641;-75
2021/04/16 00:33:46;;;;;;;26.02;24.42;;;2.00;76.20;;;;;;5092423;28;20195;-75
2021/04/16 00:36:14;;;;;;;27.02;25.15;;;2.00;76.30;;;;;;5092074;28;20225;-75
2021/04/16 00:38:41;;;;;;;25.83;24.38;;;2.00;76.30;;;;;;5092568;28;20283;-76
2021/04/16 00:41:12;;;;;;;26.05;24.35;;;2.00;76.50;;;;;;5092185;28;20302;-75
2021/04/16 00:43:39;;;;;;;26.02;24.40;;;2.00;76.60;;;;;;5092421;28;20571;-75
2021/04/16 00:46:20;;;;;;;26.92;25.23;;;1.80;77.10;;;;;;5091906;28;20202;-75
2021/04/16 00:48:50;;;;;;;26.20;24.50;;;1.80;77.20;;;;;;5092331;28;20699;-75
2021/04/16 00:51:20;;;;;;;25.92;24.33;;;1.80;77.00;;;;;;5092056;28;20223;-75
2021/04/16 00:53:47;;;;;;;25.83;24.23;;;1.80;76.80;;;;;;5092272;28;20203;-74
2021/04/16 00:56:15;;;;;;;25.50;23.95;;;1.70;77.10;;;;;;5091646;28;20216;-75
2021/04/16 00:58:42;;;;;;;27.63;25.60;;;1.60;77.70;;;;;;5092220;28;20703;-76
2021/04/16 01:01:10;;;;;;;25.75;24.13;;;1.50;78.50;;;;;;5092108;28;20215;-75
2021/04/16 01:03:36;;;;;;;26.30;24.55;;;1.50;79.60;;;;;;5092353;28;20195;-76
2021/04/16 01:06:06;;;;;;;26.27;24.70;;;1.50;79.30;;;;;;5091351;28;20204;-75
2021/04/16 01:08:34;;;;;;;27.10;25.40;;;1.40;79.50;;;;;;5091916;28;20306;-75
2021/04/16 01:11:01;;;;;;;26.15;24.25;;;1.40;79.50;;;;;;5092007;28;20226;-76
2021/04/16 01:13:28;;;;;;;26.17;24.63;;;1.40;79.20;;;;;;5091877;28;20746;-74
2021/04/16 01:15:59;;;;;;;26.30;24.80;;;1.40;79.10;;;;;;5091116;28;20687;-75
2021/04/16 01:18:29;;;;;;;26.38;24.83;;;1.40;78.90;;;;;;5092111;28;20264;-75
2021/04/16 01:20:58;;;;;;;26.23;24.50;;;1.50;78.70;;;;;;5091866;28;20238;-75
2021/04/16 01:23:33;;;;;;;27.00;25.17;;;1.50;78.30;;;;;;5091758;28;20251;-75
2021/04/16 01:26:02;;;;;;;26.60;24.67;;;1.40;78.80;;;;;;5091444;28;20202;-75
2021/04/16 01:28:28;;;;;;;25.75;23.92;;;1.30;79.60;;;;;;5091826;28;20306;-75
2021/04/16 01:30:59;;;;;;;25.27;23.85;;;1.30;79.90;;;;;;5095043;28;20219;-75
2021/04/16 01:33:27;;;;;;;26.35;24.75;;;1.30;79.70;;;;;;5095749;28;20206;-76
2021/04/16 01:35:54;;;;;;;25.90;24.33;;;1.30;79.20;;;;;;5095389;28;20201;-76
2021/04/16 01:38:21;;;;;;;26.02;24.42;;;1.20;79.30;;;;;;5095651;28;20752;-75
2021/04/16 01:40:47;;;;;;;25.92;24.40;;;1.30;79.40;;;;;;5095868;28;20294;-75
2021/04/16 01:43:17;;;;;;;25.70;24.13;;;1.30;79.10;;;;;;5095613;28;20313;-76
2021/04/16 01:45:43;;;;;;;26.08;24.40;;;1.40;78.70;;;;;;5095032;28;20206;-75
2021/04/16 01:48:09;;;;;;;25.88;24.25;;;1.30;79.20;;;;;;5095356;28;20591;-75
2021/04/16 01:50:36;;;;;;;27.05;25.25;;;1.30;79.30;;;;;;5095553;28;20215;-77
2021/04/16 01:53:03;;;;;;;26.73;24.75;;;1.30;79.20;;;;;;5095500;28;20194;-75
2021/04/16 01:55:30;;;;;;;25.52;24.02;;;1.20;79.30;;;;;;5094738;28;20600;-75
2021/04/16 01:57:56;;;;;;;25.75;24.23;;;1.30;79.00;;;;;;5095272;28;20394;-76
2021/04/16 02:00:28;;;;;;;25.17;23.58;;;1.30;78.80;;;;;;5095159;28;20302;-75
2021/04/16 02:02:54;;;;;;;26.08;24.27;;;1.20;79.10;;;;;;5095298;28;20195;-76
2021/04/16 02:05:21;;;;;;;25.77;24.05;;;1.10;79.40;;;;;;5095251;28;20291;-75
2021/04/16 02:07:47;;;;;;;25.10;23.70;;;1.10;79.80;;;;;;5094982;28;20210;-76
2021/04/16 02:10:15;;;;;;;25.88;24.38;;;1.10;79.80;;;;;;5095088;28;20684;-76
2021/04/16 02:12:42;;;;;;;26.20;24.45;;;1.10;79.80;;;;;;5095085;28;20199;-75
2021/04/16 02:15:09;;;;;;;24.63;23.13;;;1.10;79.70;;;;;;5094460;28;20234;-76
2021/04/16 02:17:37;;;;;;;25.77;24.27;;;1.10;79.80;;;;;;5094490;28;20195;-75
2021/04/16 02:20:08;;;;;;;25.60;24.00;;;1.00;79.70;;;;;;5094733;28;20212;-75
2021/04/16 02:22:34;;;;;;;26.63;24.98;;;1.00;79.70;;;;;;5094998;28;20201;-76
2021/04/16 02:25:01;;;;;;;25.70;24.20;;;1.00;79.70;;;;;;5094834;28;20209;-75
2021/04/16 02:27:28;;;;;;;26.05;24.30;;;1.00;79.90;;;;;;5094210;28;20195;-75
2021/04/16 02:29:55;;;;;;;25.33;23.70;;;1.00;79.90;;;;;;5094669;28;20225;-76
2021/04/16 02:32:22;;;;;;;25.67;24.08;;;1.00;79.90;;;;;;5094678;28;20322;-75
2021/04/16 02:34:50;;;;;;;25.30;23.67;;;1.10;79.60;;;;;;5094674;28;20221;-75
2021/04/16 02:37:19;;;;;;;24.13;22.83;;;1.10;79.40;;;;;;5094166;28;20277;-75
2021/04/16 02:39:46;;;;;;;27.58;24.83;;;1.20;79.20;;;;;;5094359;28;20250;-76
2021/04/16 02:42:12;;;;;;;24.98;23.48;;;1.20;79.10;;;;;;5094253;28;20234;-76
2021/04/16 02:44:41;;;;;;;24.73;23.33;;;1.10;79.30;;;;;;5094642;28;20286;-75
2021/04/16 02:47:08;;;;;;;24.73;23.33;;;1.00;79.70;;;;;;5093781;28;20259;-76
2021/04/16 02:49:35;;;;;;;25.70;24.20;;;1.00;79.90;;;;;;5094517;28;20222;-75
2021/04/16 02:52:03;;;;;;;27.40;25.52;;;1.00;79.80;;;;;;5094295;28;20199;-76
2021/04/16 02:54:29;;;;;;;24.70;23.25;;;1.10;79.50;;;;;;5094314;28;20285;-77
2021/04/16 02:56:56;;;;;;;26.77;24.98;;;1.10;79.20;;;;;;5093630;28;20198;-77
2021/04/16 02:59:23;;;;;;;27.05;25.35;;;1.00;79.40;;;;;;5094127;28;20282;-76
2021/04/16 03:01:51;;;;;;;25.20;23.60;;;1.10;79.40;;;;;;5094212;28;20230;-76
2021/04/16 03:04:18;;;;;;;25.98;24.38;;;1.10;79.10;;;;;;5094252;28;20281;-76
2021/04/16 03:06:44;;;;;;;26.98;25.25;;;1.00;79.20;;;;;;5093390;28;20661;-76
2021/04/16 03:09:12;;;;;;;26.58;25.00;;;0.90;79.60;;;;;;5093797;28;20218;-77
2021/04/16 03:11:39;;;;;;;27.02;25.23;;;0.80;80.10;;;;;;5093953;28;20310;-76
2021/04/16 03:14:05;;;;;;;28.63;26.77;;;0.80;80.40;;;;;;5093766;28;20231;-75
2021/04/16 03:16:33;;;;;;;25.70;24.10;;;0.90;80.30;;;;;;5093054;28;20560;-76
2021/04/16 03:19:02;;;;;;;26.33;24.73;;;0.90;79.90;;;;;;5093782;28;20192;-75
2021/04/16 03:21:29;;;;;;;29.42;27.63;;;0.90;80.10;;;;;;5093373;28;20215;-75
2021/04/16 03:23:55;;;;;;;27.50;25.65;;;0.90;80.00;;;;;;5093623;28;20333;-75
2021/04/16 03:26:24;;;;;;;27.38;25.60;;;0.90;80.00;;;;;;5093169;28;20299;-76
2021/04/16 03:28:53;;;;;;;26.77;25.15;;;0.80;80.10;;;;;;5093510;28;20217;-76
2021/04/16 03:31:20;;;;;;;26.65;25.02;;;0.80;80.50;;;;;;5093661;28;20215;-76
2021/04/16 03:33:47;;;;;;;27.90;25.65;;;0.80;80.40;;;;;;5093363;28;20222;-77
2021/04/16 03:36:14;;;;;;;25.83;24.13;;;0.80;80.60;;;;;;5092758;28;20199;-76
2021/04/16 03:38:41;;;;;;;27.10;25.33;;;0.80;80.70;;;;;;5093438;28;20311;-75
2021/04/16 03:41:08;;;;;;;29.50;27.70;;;0.80;80.50;;;;;;5093283;28;20606;-76
2021/04/16 03:43:35;;;;;;;29.13;27.23;;;0.80;81.30;;;;;;5093320;28;20286;-76
2021/04/16 03:46:01;;;;;;;27.52;25.73;;;0.70;81.20;;;;;;5092869;28;20195;-76
2021/04/16 03:48:28;;;;;;;149.02;36.67;;;0.60;81.30;;;;;;5092831;28;20305;-76
2021/04/16 03:50:55;;;;;;;26.33;24.55;;;0.60;85.10;;;;;;5093144;28;20215;-76
2021/04/16 03:53:22;;;;;;;25.50;23.75;;;0.70;88.10;;;;;;5092400;28;20195;-77
2021/04/16 03:55:48;;;;;;;24.52;23.02;;;0.70;84.20;;;;;;5092655;28;20716;-76
2021/04/16 03:58:15;;;;;;;27.17;25.42;;;0.70;82.70;;;;;;5092893;28;20194;-76
2021/04/16 04:00:42;;;;;;;26.02;24.42;;;0.70;82.30;;;;;;5093067;28;20821;-76
2021/04/16 04:03:11;;;;;;;28.15;26.25;;;0.70;81.70;;;;;;5092856;28;20199;-76
2021/04/16 04:05:38;;;;;;;25.40;23.60;;;0.70;81.50;;;;;;5092481;28;20671;-76
2021/04/16 04:08:06;;;;;;;25.20;23.67;;;0.60;81.50;;;;;;5092748;28;20226;-75
2021/04/16 04:10:36;;;;;;;25.55;23.95;;;0.60;81.50;;;;;;5092692;28;20222;-75
2021/04/16 04:13:04;;;;;;;27.75;26.05;;;0.50;81.60;;;;;;5092711;28;20565;-76
2021/04/16 04:15:30;;;;;;;27.08;25.17;;;0.50;81.80;;;;;;5091978;28;20195;-75
2021/04/16 04:17:58;;;;;;;28.98;27.17;;;0.50;81.90;;;;;;5092669;28;20202;-76
2021/04/16 04:20:28;;;;;;;25.35;23.58;;;0.40;82.20;;;;;;5092432;28;20314;-76
2021/04/16 04:22:54;;;;;;;25.10;23.60;;;0.40;82.30;;;;;;5092670;28;20683;-75
2021/04/16 04:25:23;;;;;;;29.45;27.65;;;0.40;82.20;;;;;;5092577;28;20201;-74
2021/04/16 04:27:50;;;;;;;25.55;23.85;;;0.50;82.10;;;;;;5092300;28;20203;-75
2021/04/16 04:30:19;;;;;;;25.15;23.45;;;0.50;81.90;;;;;;5092343;28;20219;-75
2021/04/16 04:32:45;;;;;;;26.67;24.98;;;0.60;81.90;;;;;;5092454;28;20311;-75
2021/04/16 04:35:14;;;;;;;25.98;24.23;;;0.60;81.60;;;;;;5092501;28;20764;-75
2021/04/16 04:37:40;;;;;;;26.52;24.50;;;0.60;81.50;;;;;;5091846;28;20199;-75
2021/04/16 04:40:09;;;;;;;26.10;24.40;;;0.60;81.60;;;;;;5092332;28;20321;-75
2021/04/16 04:42:35;;;;;;;28.23;26.15;;;0.60;81.60;;;;;;5092393;28;20198;-74
2021/04/16 04:45:02;;;;;;;26.70;24.90;;;0.60;81.60;;;;;;5092158;28;20203;-75
2021/04/16 04:47:28;;;;;;;30.13;28.20;;;0.70;81.40;;;;;;5091617;28;20575;-75
2021/04/16 04:49:55;;;;;;;26.63;24.83;;;0.70;81.30;;;;;;5092263;28;20223;-75
2021/04/16 04:52:28;;;;;;;27.10;25.17;;;0.70;81.20;;;;;;5092261;28;20198;-75
2021/04/16 04:54:57;;;;;;;28.02;25.73;;;0.70;81.50;;;;;;5092196;28;20203;-74
2021/04/16 04:57:24;;;;;;;28.55;26.65;;;0.70;81.70;;;;;;5091768;28;20198;-76
2021/04/16 04:59:52;;;;;;;25.33;23.80;;;0.70;81.60;;;;;;5092060;28;20238;-75
2021/04/16 05:02:20;;;;;;;27.67;25.98;;;0.80;81.60;;;;;;5092335;28;20277;-76
2021/04/16 05:04:46;;;;;;;25.17;23.65;;;0.90;81.10;;;;;;5095162;28;20737;-75
2021/04/16 05:07:13;;;;;;;29.45;27.27;;;1.10;80.30;;;;;;5095894;28;20286;-76
2021/04/16 05:09:40;;;;;;;25.80;24.20;;;1.10;80.10;;;;;;5096108;28;20249;-76
2021/04/16 05:12:08;;;;;;;26.05;24.30;;;1.10;80.30;;;;;;5096170;28;20309;-75
2021/04/16 05:14:35;;;;;;;26.52;24.23;;;1.20;80.50;;;;;;5095722;28;20699;-75
2021/04/16 05:17:02;;;;;;;28.42;26.67;;;1.20;80.80;;;;;;5095556;28;20285;-76
2021/04/16 05:19:28;;;;;;;26.90;25.20;;;1.30;80.50;;;;;;5096111;28;20195;-75
2021/04/16 05:21:56;;;;;;;27.55;25.85;;;1.30;80.10;;;;;;5095745;27;20231;-76
2021/04/16 05:24:23;;;;;;;26.52;24.73;;;1.40;80.00;;;;;;5095808;28;20206;-76
2021/04/16 05:26:51;;;;;;;26.33;24.52;;;1.50;79.70;;;;;;5095399;28;20206;-75
2021/04/16 05:29:18;;;;;;;27.20;25.38;;;1.60;79.50;;;;;;5095750;28;20700;-76
2021/04/16 05:31:44;;;;;;;30.45;28.65;;;1.70;79.60;;;;;;5095894;28;20226;-75
2021/04/16 05:34:10;;;;;;;27.90;26.20;;;1.80;79.20;;;;;;5095735;28;20191;-75
2021/04/16 05:36:37;;;;;;;27.40;25.63;;;1.80;78.90;;;;;;5095301;28;20199;-76
2021/04/16 05:39:03;;;;;;;27.90;26.20;;;1.90;78.50;;;;;;5095396;28;20192;-76
2021/04/16 05:41:30;;;;;;;28.10;25.92;;;2.10;78.30;;;;;;5095750;28;20220;-76
2021/04/16 05:43:57;;;;;;;28.75;26.85;;;2.20;77.60;;;;;;5095817;28;20542;-76
2021/04/16 05:46:23;;;;;;;29.42;27.13;;;2.30;77.30;;;;;;5094994;28;20234;-76
2021/04/16 05:48:50;;;;;;;28.45;26.45;;;2.30;77.00;;;;;;5095571;28;20218;-76
2021/04/16 05:51:16;;;;;;;28.70;26.90;;;2.40;77.00;;;;;;5095388;28;20218;-76
2021/04/16 05:53:43;;;;;;;27.13;25.38;;;2.40;76.60;;;;;;5095540;28;20566;-76
2021/04/16 05:56:10;;;;;;;28.95;26.95;;;2.50;76.60;;;;;;5094821;28;20260;-76
2021/04/16 05:58:36;;;;;;;27.80;26.00;;;2.70;76.30;;;;;;5095470;28;20192;-76
2021/04/16 06:01:04;;;;;;;30.73;28.80;;;2.80;75.70;;;;;;5095223;28;20302;-76
2021/04/16 06:03:31;;;;;;;31.63;29.35;;;3.00;75.60;;;;;;5095370;28;20200;-75
2021/04/16 06:05:58;;;;;;;29.20;27.45;;;3.00;74.80;;;;;;5094691;28;20202;-78
2021/04/16 06:08:25;;;;;;;29.85;27.85;;;3.10;74.70;;;;;;5095178;28;20204;-76
2021/04/16 06:10:52;;;;;;;29.13;27.33;;;3.20;74.50;;;;;;5095135;28;20229;-76
2021/04/16 06:13:19;;;;;;;29.75;27.55;;;3.20;74.50;;;;;;5095208;28;20288;-76
2021/04/16 06:15:45;;;;;;;30.27;28.30;;;3.20;74.30;;;;;;5093426;28;20297;-76
2021/04/16 06:18:13;;;;;;;31.15;28.77;;;3.40;73.90;;;;;;5095014;28;20287;-75
2021/04/16 06:20:39;;;;;;;30.38;28.48;;;3.50;73.60;;;;;;5094603;28;20302;-76
2021/04/16 06:23:06;;;;;;;29.27;27.27;;;3.60;73.20;;;;;;5094769;28;20284;-75
2021/04/16 06:25:34;;;;;;;28.52;26.73;;;3.80;72.60;;;;;;5094372;28;20195;-75
2021/04/16 06:28:01;;;;;;;27.70;26.10;;;3.80;72.40;;;;;;5094965;28;20385;-76
2021/04/16 06:30:28;;;;;;;29.50;27.10;;;4.00;71.80;;;;;;5094564;28;20744;-75
2021/04/16 06:33:06;;;;;;;28.63;26.92;;;4.10;71.10;;;;;;5094860;28;20199;-75
2021/04/16 06:35:35;;;;;;;30.90;28.52;;;3.90;71.80;;;;;;5093988;28;20664;-75
2021/04/16 06:38:02;;;;;;;27.95;26.15;;;4.00;71.90;;;;;;5094495;28;20285;-75
2021/04/16 06:40:31;;;;;;;30.60;28.60;;;4.20;71.60;;;;;;5094587;28;20290;-75
2021/04/16 06:42:58;;;;;;;30.85;28.95;;;4.30;70.60;;;;;;5094453;28;20560;-76
2021/04/16 06:45:28;;;;;;;29.08;27.27;;;4.30;70.70;;;;;;5094521;28;20210;-76
2021/04/16 06:47:58;;;;;;;28.75;26.85;;;4.20;71.30;;;;;;5094629;28;20202;-75
2021/04/16 06:50:27;;;;;;;29.58;27.58;;;4.40;71.50;;;;;;5094365;28;20239;-75
2021/04/16 06:53:02;;;;;;;31.50;29.23;;;4.40;79.50;;;;;;5094355;28;20199;-75
2021/04/16 06:55:31;;;;;;;50.75;31.30;;;4.60;75.20;;;;;;5093878;28;20355;-76
2021/04/16 06:58:03;;;;;;;28.80;27.10;;;4.80;72.60;;;;;;5094557;28;20672;-75
2021/04/16 07:00:39;;;;;;;29.33;27.42;;;4.90;72.10;;;;;;5093967;28;20207;-75
2021/04/16 07:03:11;;;;;;;30.23;28.48;;;5.00;71.40;;;;;;5094224;28;20195;-75
2021/04/16 07:05:44;;;;;;;28.02;26.02;;;5.10;70.00;;;;;;5093516;28;20285;-76
2021/04/16 07:08:23;;;;;;;30.58;28.88;;;5.00;69.90;;;;;;5094012;28;20235;-76
2021/04/16 07:10:54;;;;;;;28.73;26.92;;;5.00;71.10;;;;;;5093972;28;20219;-76
2021/04/16 07:13:29;;;;;;;30.17;28.38;;;5.00;71.40;;;;;;5093841;28;20291;-76
2021/04/16 07:15:56;;;;;;;30.65;28.55;;;5.10;71.30;;;;;;5092871;28;20199;-76
2021/04/16 07:18:28;;;;;;;28.88;27.00;;;5.00;71.50;;;;;;5093862;28;20194;-76
2021/04/16 07:20:55;;;;;;;28.70;27.00;;;5.10;74.20;;;;;;5093563;28;20760;-76
2021/04/16 07:23:23;;;;;;;31.02;28.90;;;5.30;72.20;;;;;;5093555;28;20290;-76
2021/04/16 07:26:03;;;;;;;29.40;27.60;;;5.30;71.40;;;;;;5093156;28;20672;-77
2021/04/16 07:28:48;;;;;;;29.40;27.50;;;5.50;71.00;;;;;;5092510;28;20205;-77
2021/04/16 07:31:49;;;;;;;29.30;27.52;;;5.60;70.50;;;;;;5093642;28;20380;-76
2021/04/16 07:34:32;;;;;;;28.45;26.35;;;5.70;70.20;;;;;;5093520;28;20252;-76
2021/04/16 07:37:10;;;;;;;28.63;26.92;;;5.90;69.70;;;;;;5091080;28;20282;-76
2021/04/16 07:39:44;;;;;;;28.83;26.98;;;5.80;70.20;;;;;;5093367;28;20273;-76
2021/04/16 07:42:35;;;;;;;30.80;28.80;;;5.80;70.60;;;;;;5093149;28;20199;-76
2021/04/16 07:45:07;;;;;;;29.55;27.58;;;6.10;69.80;;;;;;5093169;28;20221;-76
2021/04/16 07:47:35;;;;;;;31.50;29.30;;;6.10;68.80;;;;;;5092731;28;20230;-76
2021/04/16 07:50:06;;;;;;;28.55;26.88;;;6.00;69.20;;;;;;5093039;28;20218;-76
2021/04/16 07:52:36;;;;;;;29.60;27.80;;;6.00;69.80;;;;;;5093269;28;20201;-76
2021/04/16 07:55:25;;;;;;;29.35;27.02;;;6.10;69.40;;;;;;5093129;28;20286;-76
2021/04/16 07:58:08;;;;;;;29.90;28.17;;;6.10;69.00;;;;;;5092827;28;20246;-76
2021/04/16 08:00:39;;;;;;;29.20;27.33;;;5.90;69.80;;;;;;5090897;28;20219;-76
2021/04/16 08:03:11;;;;;;;33.08;31.00;;;5.90;68.90;;;;;;5092910;28;20243;-76
2021/04/16 08:05:41;;;;;;;31.77;29.77;;;5.70;69.70;;;;;;5092342;28;20286;-76
2021/04/16 08:08:14;;;;;;;29.80;28.05;;;5.50;70.60;;;;;;5093040;28;20226;-76
2021/04/16 08:10:42;;;;;;;30.30;28.23;;;5.70;70.90;;;;;;5092836;28;20227;-76
2021/04/16 08:13:11;;;;;;;31.08;29.02;;;6.00;70.10;;;;;;5092668;28;20234;-77
2021/04/16 08:15:38;;;;;;;30.40;28.60;;;6.00;69.20;;;;;;5091833;28;20199;-76
2021/04/16 08:18:09;;;;;;;30.02;27.83;;;6.20;73.00;;;;;;5092631;28;20286;-76
2021/04/16 08:20:44;;;;;;;33.95;31.75;;;6.10;70.00;;;;;;5092454;28;20214;-76
2021/04/16 08:23:13;;;;;;;31.50;29.42;;;6.50;68.40;;;;;;5092685;28;20198;-76
2021/04/16 08:25:45;;;;;;;29.77;28.00;;;6.60;68.10;;;;;;5091903;28;20286;-75
2021/04/16 08:28:17;;;;;;;29.48;27.77;;;6.40;68.30;;;;;;5092553;28;20782;-77
2021/04/16 08:30:50;;;;;;;29.58;27.77;;;6.40;68.60;;;;;;5092359;28;20222;-77
2021/04/16 08:33:23;;;;;;;30.75;28.75;;;6.40;69.30;;;;;;5092711;28;20293;-76
2021/04/16 08:35:59;;;;;;;30.98;29.10;;;6.80;67.40;;;;;;5091996;28;20286;-76
2021/04/16 08:38:30;;;;;;;29.27;27.60;;;7.00;66.50;;;;;;5092069;28;20278;-76
2021/04/16 08:41:01;;;;;;;31.13;29.25;;;6.80;66.70;;;;;;5092415;28;20218;-77
2021/04/16 08:43:34;;;;;;;33.22;31.13;;;6.80;66.90;;;;;;5092390;28;20195;-74
2021/04/16 08:46:05;;;;;;;29.90;28.05;;;6.80;67.20;;;;;;5091743;28;20277;-76
2021/04/16 08:48:37;;;;;;;30.45;28.58;;;6.70;67.60;;;;;;5092611;28;20208;-76
2021/04/16 08:51:07;;;;;;;32.78;30.70;;;6.50;68.20;;;;;;5092419;28;20219;-77
2021/04/16 08:53:34;;;;;;;32.45;30.83;;;6.60;68.80;;;;;;5092460;28;20201;-76
2021/04/16 08:56:15;;;;;;;29.92;28.23;;;6.60;68.20;;;;;;5092035;28;20211;-77
2021/04/16 08:58:42;;;;;;;30.60;28.73;;;6.40;68.80;;;;;;5092312;28;20207;-76
2021/04/16 09:01:16;;;;;;;30.30;28.40;;;6.30;68.50;;;;;;5091928;28;20332;-75
2021/04/16 09:03:45;;;;;;;32.53;30.42;;;6.20;69.30;;;;;;5092239;28;20219;-75
2021/04/16 09:06:25;;;;;;;29.95;28.05;;;6.30;68.60;;;;;;5091540;28;20196;-75
2021/04/16 09:08:51;;;;;;;27.60;26.08;;;6.70;70.80;;;;;;5092083;28;20193;-75
2021/04/16 09:11:50;;;;;;;29.02;27.33;;;7.20;66.70;;;;;;5092101;28;20224;-76
2021/04/16 09:14:53;;;;;;;29.15;27.35;;;7.50;65.60;;;;;;5092106;28;20193;-76
2021/04/16 09:17:19;;;;;;;28.08;26.38;;;8.10;63.00;;;;;;5091822;28;20284;-76
2021/04/16 09:20:02;;;;;;;28.70;26.75;;;8.50;61.70;;;;;;5091722;28;20341;-76
2021/04/16 09:22:43;;;;;;;28.50;26.90;;;8.60;60.90;;;;;;5092329;28;20195;-76
2021/04/16 09:25:45;;;;;;;28.98;27.23;;;8.70;60.50;;;;;;5092045;28;20725;-76
2021/04/16 09:28:56;;;;;;;28.30;26.55;;;8.30;61.30;;;;;;5092033;28;20317;-77
2021/04/16 09:31:49;;;;;;;28.33;26.52;;;8.40;61.50;;;;;;5055005;28;20600;-76
2021/04/16 09:34:19;;;;;;;28.48;26.60;;;8.60;60.60;;;;;;5091911;28;20205;-74
2021/04/16 09:36:48;;;;;;;29.30;27.40;;;8.50;61.30;;;;;;5091378;28;20210;-74
2021/04/16 09:39:37;;;;;;;28.95;27.08;;;9.00;59.80;;;;;;5091658;28;20666;-73
2021/04/16 09:42:32;;;;;;;31.00;29.20;;;9.20;58.40;;;;;;5091760;28;20213;-75
2021/04/16 09:45:00;;;;;;;28.70;26.90;;;8.80;59.30;;;;;;5091687;28;20206;-74
2021/04/16 09:47:55;;;;;;;28.60;26.80;;;8.80;59.50;;;;;;5091043;28;20211;-75
2021/04/16 09:50:29;;;;;;;27.67;26.08;;;9.40;59.50;;;;;;5092014;28;20219;-75
2021/04/16 09:53:25;;;;;;;29.50;27.60;;;9.90;58.30;;;;;;5095579;28;20201;-74
2021/04/16 09:56:16;;;;;;;28.48;26.73;;;9.70;56.80;;;;;;5093053;28;20686;-75
2021/04/16 09:59:08;;;;;;;27.30;25.60;;;9.30;58.20;;;;;;5095645;28;20237;-76
2021/04/16 10:01:59;;;;;;;28.23;26.42;;;9.20;58.70;;;;;;5095611;28;20219;-75
2021/04/16 10:04:57;;;;;;;27.35;25.83;;;9.50;58.20;;;;;;5080011;28;20198;-76
2021/04/16 10:07:34;;;;;;;29.95;28.35;;;9.80;56.40;;;;;;5095071;28;20199;-76
2021/04/16 10:10:12;;;;;;;26.60;24.90;;;9.90;55.50;;;;;;5095037;28;20227;-76
2021/04/16 10:12:40;;;;;;;28.17;26.55;;;10.20;55.30;;;;;;5095265;28;20195;-76
2021/04/16 10:15:21;;;;;;;28.95;27.25;;;10.60;54.40;;;;;;5094734;28;20795;-76
2021/04/16 10:18:00;;;;;;;27.90;26.20;;;11.00;53.30;;;;;;5094982;28;20665;-76
2021/04/16 10:20:31;;;;;;;29.73;27.93;;;11.10;52.70;;;;;;5094698;28;20703;-76
2021/04/16 10:23:03;;;;;;;28.43;26.73;;;10.80;52.50;;;;;;5094968;28;20486;-75
2021/04/16 12:39:01;;;;;;;28.80;27.10;;;7.60;61.00;;;;;;5092761;28;20198;-76
2021/04/16 12:41:31;;;;;;;27.17;25.52;;;7.70;60.30;;;;;;5092420;28;20313;-76
2021/04/16 12:43:58;;;;;;;26.70;25.20;;;7.90;60.40;;;;;;5092527;28;20225;-76
2021/04/16 12:46:29;;;;;;;27.38;25.77;;;8.20;59.30;;;;;;5091611;28;20248;-77
2021/04/16 12:48:56;;;;;;;27.15;25.65;;;8.20;59.00;;;;;;5092425;28;20293;-77
2021/04/16 12:51:22;;;;;;;29.60;27.52;;;8.40;59.50;;;;;;5092225;28;20308;-76
2021/04/16 12:53:48;;;;;;;29.30;27.50;;;8.50;62.10;;;;;;5092458;28;20285;-77
2021/04/16 12:56:19;;;;;;;26.70;25.17;;;8.80;58.10;;;;;;5091576;28;20195;-76
2021/04/16 12:58:47;;;;;;;27.85;26.25;;;8.80;57.60;;;;;;5092142;28;20248;-76
2021/04/16 13:01:21;;;;;;;30.55;28.55;;;8.90;58.00;;;;;;5092762;28;20223;-76
2021/04/16 13:03:50;;;;;;;27.98;26.40;;;9.10;57.40;;;;;;5093811;28;20197;-77
2021/04/16 13:06:23;;;;;;;27.90;26.27;;;8.90;57.50;;;;;;5092304;28;20285;-76
2021/04/16 13:08:50;;;;;;;28.70;27.00;;;8.80;57.80;;;;;;5092276;28;20199;-76
2021/04/16 13:11:18;;;;;;;29.15;27.60;;;8.60;57.90;;;;;;5091819;28;20252;-76
2021/04/16 13:13:44;;;;;;;28.65;27.05;;;8.80;58.10;;;;;;5092378;28;20222;-77
2021/04/16 13:16:11;;;;;;;30.15;28.55;;;9.00;58.20;;;;;;5091237;28;20204;-76
2021/04/16 13:18:41;;;;;;;26.80;25.00;;;9.10;57.60;;;;;;5092121;28;20290;-77
2021/04/16 13:21:14;;;;;;;28.05;26.45;;;9.30;57.30;;;;;;5091699;28;20211;-76
2021/04/16 13:23:42;;;;;;;26.50;25.10;;;9.30;56.60;;;;;;5092169;28;20765;-76
2021/04/16 13:26:08;;;;;;;28.42;26.80;;;9.30;56.90;;;;;;5094947;28;20739;-77
2021/04/16 13:28:35;;;;;;;27.25;25.48;;;9.40;57.10;;;;;;5096106;28;20199;-76
2021/04/16 13:31:01;;;;;;;27.88;26.05;;;9.10;56.00;;;;;;5095950;28;20712;-76
2021/04/16 13:33:29;;;;;;;29.77;28.13;;;8.80;57.30;;;;;;5095962;28;20234;-76
2021/04/16 13:35:56;;;;;;;26.92;25.52;;;9.00;56.90;;;;;;5095403;28;20729;-76
2021/04/16 13:38:25;;;;;;;27.05;25.45;;;9.10;55.90;;;;;;5095762;28;20202;-75
2021/04/16 13:40:54;;;;;;;28.35;26.35;;;8.80;56.60;;;;;;5095771;28;20247;-76
2021/04/16 13:43:21;;;;;;;26.20;24.58;;;8.80;57.60;;;;;;5095744;28;20593;-76
2021/04/16 13:45:49;;;;;;;27.88;26.20;;;9.00;57.30;;;;;;5095216;28;20553;-76
2021/04/16 13:48:17;;;;;;;27.30;25.80;;;9.30;56.80;;;;;;5095669;28;20280;-76
2021/04/16 13:50:44;;;;;;;27.63;25.88;;;9.50;56.80;;;;;;5095362;28;20307;-76
2021/04/16 13:53:11;;;;;;;27.30;25.70;;;9.50;56.30;;;;;;5095509;28;20286;-76
2021/04/16 13:55:37;;;;;;;26.75;25.20;;;9.50;56.00;;;;;;5095124;28;20278;-76
2021/04/16 13:58:05;;;;;;;26.23;24.73;;;9.60;56.00;;;;;;5095606;28;20680;-76
2021/04/16 14:00:35;;;;;;;26.70;25.20;;;9.70;55.00;;;;;;5095433;28;20218;-77
2021/04/16 14:03:06;;;;;;;26.20;24.80;;;9.60;54.60;;;;;;5095259;28;20657;-76
2021/04/16 14:05:32;;;;;;;29.65;28.13;;;9.60;53.70;;;;;;5094710;28;20721;-76
2021/04/16 14:08:02;;;;;;;25.75;24.35;;;9.50;54.60;;;;;;5095302;28;20282;-77
2021/04/16 14:10:30;;;;;;;27.27;25.67;;;9.40;55.10;;;;;;5095080;28;20639;-76
2021/04/16 14:12:56;;;;;;;25.75;24.25;;;9.50;54.30;;;;;;5095413;28;20199;-77
2021/04/16 14:15:24;;;;;;;25.55;24.25;;;9.80;53.80;;;;;;5094705;28;20225;-76
2021/04/16 14:17:53;;;;;;;26.50;25.00;;;9.80;54.00;;;;;;5094766;28;20233;-77
2021/04/16 14:20:28;;;;;;;25.15;23.75;;;9.60;54.20;;;;;;5094857;28;20211;-77
2021/04/16 14:22:56;;;;;;;26.40;25.00;;;9.50;54.20;;;;;;5095002;28;20198;-76
2021/04/16 14:25:26;;;;;;;25.23;23.77;;;9.40;54.60;;;;;;5094803;28;20678;-75
2021/04/16 14:27:53;;;;;;;25.90;24.50;;;9.10;54.80;;;;;;5094937;28;20285;-76
2021/04/16 14:30:22;;;;;;;26.20;24.70;;;8.90;55.80;;;;;;5094681;28;20298;-79
2021/04/16 14:32:50;;;;;;;25.42;24.02;;;8.90;55.80;;;;;;5094855;28;20680;-77
2021/04/16 14:35:17;;;;;;;25.85;24.25;;;9.00;55.20;;;;;;5094761;28;20199;-76
2021/04/16 14:37:44;;;;;;;24.65;23.15;;;8.80;54.50;;;;;;5093604;28;20195;-76
2021/04/16 14:40:12;;;;;;;24.23;22.92;;;8.80;55.30;;;;;;5094544;28;20297;-76
2021/04/16 14:42:39;;;;;;;26.35;24.85;;;8.90;54.50;;;;;;5094811;28;20278;-78
2021/04/16 14:45:10;;;;;;;23.95;22.52;;;9.10;54.10;;;;;;5093864;28;20454;-77
2021/04/16 14:47:36;;;;;;;25.52;24.13;;;9.40;53.50;;;;;;5094363;28;20687;-76
2021/04/16 14:50:05;;;;;;;26.88;25.10;;;9.10;54.00;;;;;;5094195;28;20224;-76
2021/04/16 14:52:31;;;;;;;25.08;23.50;;;9.20;54.10;;;;;;5094511;28;20247;-77
2021/04/16 14:54:58;;;;;;;25.38;23.98;;;9.30;54.30;;;;;;5094280;28;20683;-76
2021/04/16 14:57:28;;;;;;;26.35;24.85;;;9.00;54.20;;;;;;5093727;28;20602;-76
2021/04/16 14:59:56;;;;;;;26.42;24.92;;;8.70;55.10;;;;;;5094174;28;20714;-76
2021/04/16 15:02:24;;;;;;;25.80;24.40;;;8.80;55.00;;;;;;5094325;28;20287;-76
2021/04/16 15:04:50;;;;;;;25.83;24.33;;;8.80;55.00;;;;;;5094231;28;20195;-76